createdAt,value
2019-04-22T00:00:49.310Z,17.26
2019-04-22T00:01:50.292Z,17.23
2019-04-22T00:02:52.563Z,17.14
2019-04-22T00:03:53.212Z,17.26
2019-04-22T00:04:58.697Z,17.26
2019-04-22T00:06:07.229Z,17.26
2019-04-22T00:07:11.460Z,17.26
2019-04-22T00:08:08.589Z,17.16
2019-04-22T00:09:17.386Z,17.16
2019-04-22T00:10:15.320Z,17.16
2019-04-22T00:11:24.307Z,17.14
2019-04-22T00:12:16.238Z,17.18
2019-04-22T00:13:21.887Z,17.06
2019-04-22T00:14:08.310Z,17.11
2019-04-22T00:15:03.695Z,17.04
2019-04-22T00:16:07.351Z,17.07
2019-04-22T00:17:16.420Z,17.03
2019-04-22T00:18:13.284Z,17.06
2019-04-22T00:19:33.866Z,17.03
2019-04-22T00:20:14.782Z,17.11
2019-04-22T00:21:12.554Z,17.08
2019-04-22T00:22:17.920Z,17.04
2019-04-22T00:23:14.094Z,17.14
2019-04-22T00:24:12.153Z,17.00
2019-04-22T00:25:12.623Z,16.97
2019-04-22T00:26:20.704Z,17.06
2019-04-22T00:27:14.092Z,16.98
2019-04-22T00:28:19.992Z,16.98
2019-04-22T00:29:34.184Z,16.93
2019-04-22T00:31:18.277Z,16.91
2019-04-22T00:32:16.153Z,16.93
2019-04-22T00:33:08.029Z,16.94
2019-04-22T00:34:11.159Z,16.88
2019-04-22T00:35:12.754Z,16.86
2019-04-22T00:36:08.871Z,16.82
2019-04-22T00:37:08.031Z,16.82
2019-04-22T00:38:17.411Z,16.85
2019-04-22T00:39:18.984Z,16.85
2019-04-22T00:40:14.236Z,16.81
2019-04-22T00:41:13.148Z,16.82
2019-04-22T00:42:17.913Z,16.81
2019-04-22T00:43:13.937Z,16.76
2019-04-22T00:44:09.580Z,16.73
2019-04-22T00:45:15.620Z,16.68
2019-04-22T00:46:10.938Z,16.71
2019-04-22T00:47:21.509Z,16.68
2019-04-22T00:48:17.818Z,16.71
2019-04-22T00:49:52.411Z,16.73
2019-04-22T00:50:20.926Z,16.58
2019-04-22T00:51:17.430Z,16.56
2019-04-22T00:52:10.796Z,16.53
2019-04-22T00:53:26.075Z,16.49
2019-04-22T00:54:08.567Z,16.49
2019-04-22T00:55:12.362Z,16.50
2019-04-22T00:56:10.664Z,16.34
2019-04-22T00:57:08.727Z,16.39
2019-04-22T00:58:12.174Z,16.41
2019-04-22T00:59:15.628Z,16.39
2019-04-22T01:00:11.934Z,16.42
2019-04-22T01:01:14.390Z,16.38
2019-04-22T01:02:13.073Z,16.41
2019-04-22T01:03:21.566Z,16.39
2019-04-22T01:04:21.462Z,16.27
2019-04-22T01:05:16.804Z,16.31
2019-04-22T01:06:14.553Z,16.35
2019-04-22T01:07:11.841Z,16.38
2019-04-22T01:08:15.072Z,16.39
2019-04-22T01:09:11.259Z,16.34
2019-04-22T01:10:12.767Z,16.39
2019-04-22T01:11:17.138Z,16.35
2019-04-22T01:12:13.836Z,16.30
2019-04-22T01:13:16.684Z,16.30
2019-04-22T01:14:09.255Z,16.20
2019-04-22T01:15:17.924Z,16.08
2019-04-22T01:16:10.811Z,16.00
2019-04-22T01:17:15.676Z,16.02
2019-04-22T01:18:12.621Z,15.93
2019-04-22T01:19:07.640Z,15.97
2019-04-22T01:20:24.506Z,15.93
2019-04-22T01:21:16.429Z,15.89
2019-04-22T01:22:13.674Z,16.04
2019-04-22T01:23:12.726Z,15.89
2019-04-22T01:24:09.134Z,15.90
2019-04-22T01:25:12.953Z,15.93
2019-04-22T01:26:09.825Z,15.96
2019-04-22T01:27:04.270Z,15.90
2019-04-22T01:28:03.887Z,15.84
2019-04-22T01:28:59.545Z,15.90
2019-04-22T01:29:56.527Z,15.87
2019-04-22T01:30:53.326Z,15.83
2019-04-22T01:31:47.794Z,15.83
2019-04-22T01:32:49.379Z,15.76
2019-04-22T01:34:00.470Z,15.83
2019-04-22T01:34:57.998Z,15.83
2019-04-22T01:36:01.407Z,15.75
2019-04-22T01:37:07.732Z,15.71
2019-04-22T01:38:06.528Z,15.75
2019-04-22T01:39:14.049Z,15.75
2019-04-22T01:40:14.849Z,15.84
2019-04-22T01:41:20.183Z,15.76
2019-04-22T01:42:12.184Z,15.72
2019-04-22T01:44:21.533Z,15.68
2019-04-22T01:45:13.900Z,15.78
2019-04-22T01:46:21.378Z,15.60
2019-04-22T01:47:12.858Z,15.60
2019-04-22T01:48:17.711Z,15.56
2019-04-22T01:49:15.998Z,15.59
2019-04-22T01:50:16.913Z,15.67
2019-04-22T01:51:09.261Z,15.62
2019-04-22T01:52:14.325Z,15.64
2019-04-22T01:53:16.432Z,15.62
2019-04-22T01:54:12.192Z,15.59
2019-04-22T01:55:17.862Z,15.59
2019-04-22T01:56:17.411Z,15.59
2019-04-22T01:57:10.965Z,15.59
2019-04-22T01:58:09.011Z,15.64
2019-04-22T01:59:12.631Z,15.62
2019-04-22T02:00:00.642Z,15.62
2019-04-22T02:01:13.571Z,15.64
2019-04-22T02:02:14.396Z,15.62
2019-04-22T02:03:12.485Z,15.65
2019-04-22T02:04:21.072Z,15.64
2019-04-22T02:05:12.276Z,15.59
2019-04-22T02:06:17.117Z,15.65
2019-04-22T02:07:16.917Z,15.57
2019-04-22T02:08:16.620Z,15.53
2019-04-22T02:09:20.293Z,15.53
2019-04-22T02:10:19.363Z,15.49
2019-04-22T02:11:14.429Z,15.57
2019-04-22T02:12:17.703Z,15.51
2019-04-22T02:13:15.869Z,15.50
2019-04-22T02:14:11.875Z,15.54
2019-04-22T02:15:13.874Z,15.44
2019-04-22T02:16:16.200Z,15.29
2019-04-22T02:17:25.238Z,15.32
2019-04-22T02:18:18.086Z,15.38
2019-04-22T02:19:20.729Z,15.35
2019-04-22T02:20:13.525Z,15.34
2019-04-22T02:21:13.849Z,15.32
2019-04-22T02:22:07.376Z,15.32
2019-04-22T02:23:30.584Z,15.32
2019-04-22T02:24:09.052Z,15.32
2019-04-22T02:25:18.192Z,15.35
2019-04-22T02:27:23.971Z,15.34
2019-04-22T02:28:16.470Z,15.36
2019-04-22T02:29:17.141Z,15.31
2019-04-22T02:30:05.495Z,15.31
2019-04-22T02:32:27.257Z,15.29
2019-04-22T02:34:22.306Z,15.32
2019-04-22T02:35:31.231Z,15.31
2019-04-22T02:38:31.406Z,15.23
2019-04-22T02:39:12.126Z,15.28
2019-04-22T02:40:27.643Z,15.27
2019-04-22T02:41:23.172Z,15.28
2019-04-22T02:43:41.101Z,15.14
2019-04-22T02:44:16.905Z,15.16
2019-04-22T02:45:18.205Z,15.16
2019-04-22T02:48:31.880Z,15.13
2019-04-22T02:49:23.068Z,15.16
2019-04-22T02:50:08.995Z,15.11
2019-04-22T02:51:18.164Z,15.07
2019-04-22T02:52:17.633Z,15.16
2019-04-22T02:53:41.816Z,15.03
2019-04-22T02:55:15.424Z,15.07
2019-04-22T02:57:27.969Z,14.96
2019-04-22T02:58:27.703Z,15.02
2019-04-22T02:59:14.144Z,15.06
2019-04-22T03:00:21.666Z,14.99
2019-04-22T03:01:27.506Z,14.99
2019-04-22T03:02:25.122Z,14.94
2019-04-22T03:03:36.593Z,14.98
2019-04-22T03:05:33.193Z,14.98
2019-04-22T03:06:29.552Z,14.94
2019-04-22T03:07:12.806Z,14.88
2019-04-22T03:08:25.280Z,14.83
2019-04-22T03:09:19.066Z,14.86
2019-04-22T03:10:20.595Z,14.83
2019-04-22T03:11:22.296Z,14.80
2019-04-22T03:12:16.363Z,14.84
2019-04-22T03:13:21.714Z,14.88
2019-04-22T03:14:18.502Z,14.86
2019-04-22T03:15:29.974Z,14.81
2019-04-22T03:17:16.267Z,14.69
2019-04-22T03:18:19.516Z,14.73
2019-04-22T03:19:25.925Z,14.75
2019-04-22T03:20:09.216Z,14.62
2019-04-22T03:21:18.675Z,14.64
2019-04-22T03:22:16.931Z,14.72
2019-04-22T03:23:25.483Z,14.68
2019-04-22T03:24:20.249Z,14.58
2019-04-22T03:26:27.350Z,14.57
2019-04-22T03:27:16.259Z,14.57
2019-04-22T03:28:18.709Z,14.55
2019-04-22T03:29:10.599Z,14.69
2019-04-22T03:30:45.542Z,14.58
2019-04-22T03:32:40.413Z,14.57
2019-04-22T03:33:37.011Z,14.54
2019-04-22T03:36:49.076Z,14.46
2019-04-22T03:38:25.390Z,14.43
2019-04-22T03:40:22.684Z,14.40
2019-04-22T03:41:32.220Z,14.36
2019-04-22T03:43:19.613Z,14.37
2019-04-22T03:44:26.652Z,14.37
2019-04-22T03:46:16.664Z,14.33
2019-04-22T03:47:26.092Z,14.22
2019-04-22T03:48:16.273Z,14.25
2019-04-22T03:51:27.313Z,14.20
2019-04-22T03:53:15.102Z,14.21
2019-04-22T03:56:47.248Z,14.12
2019-04-22T03:58:10.645Z,14.17
2019-04-22T04:00:28.484Z,14.10
2019-04-22T04:01:18.379Z,14.07
2019-04-22T04:02:21.434Z,14.04
2019-04-22T04:03:11.989Z,14.00
2019-04-22T04:04:25.643Z,14.06
2019-04-22T04:05:26.363Z,13.99
2019-04-22T04:06:22.250Z,13.96
2019-04-22T04:07:36.243Z,13.92
2019-04-22T04:09:33.381Z,13.96
2019-04-22T04:10:37.116Z,13.99
2019-04-22T04:11:30.290Z,14.00
2019-04-22T04:12:14.759Z,13.91
2019-04-22T04:15:21.644Z,13.95
2019-04-22T04:16:19.567Z,13.97
2019-04-22T04:18:13.303Z,13.95
2019-04-22T04:19:28.168Z,13.92
2019-04-22T04:20:23.343Z,14.02
2019-04-22T04:22:30.412Z,13.89
2019-04-22T04:23:38.303Z,13.82
2019-04-22T04:24:38.140Z,13.71
2019-04-22T04:25:26.576Z,13.82
2019-04-22T04:26:17.021Z,13.63
2019-04-22T04:28:31.300Z,13.66
2019-04-22T04:29:37.740Z,13.70
2019-04-22T04:31:27.350Z,13.73
2019-04-22T04:35:25.652Z,13.78
2019-04-22T04:36:23.148Z,13.82
2019-04-22T04:37:37.370Z,13.82
2019-04-22T04:38:40.909Z,13.82
2019-04-22T04:39:17.986Z,13.95
2019-04-22T04:40:21.323Z,13.88
2019-04-22T04:43:15.626Z,13.97
2019-04-22T04:45:40.840Z,13.96
2019-04-22T04:46:27.089Z,13.89
2019-04-22T04:47:39.043Z,13.84
2019-04-22T04:48:18.499Z,13.89
2019-04-22T04:50:12.055Z,13.95
2019-04-22T04:51:33.821Z,13.95
2019-04-22T04:53:20.541Z,13.95
2019-04-22T04:55:22.077Z,13.89
2019-04-22T04:56:20.420Z,13.91
2019-04-22T04:58:28.942Z,13.89
2019-04-22T05:02:24.192Z,13.84
2019-04-22T05:03:21.335Z,13.85
2019-04-22T05:06:22.277Z,13.82
2019-04-22T05:07:17.812Z,13.75
2019-04-22T05:11:32.921Z,13.92
2019-04-22T05:12:25.562Z,13.97
2019-04-22T05:13:10.776Z,14.00
2019-04-22T05:14:17.282Z,14.00
2019-04-22T05:16:24.454Z,13.97
2019-04-22T05:17:18.497Z,14.07
2019-04-22T05:18:12.511Z,14.07
2019-04-22T05:19:15.479Z,14.09
2019-04-22T05:21:13.979Z,14.09
2019-04-22T05:22:28.000Z,14.10
2019-04-22T05:23:16.246Z,14.15
2019-04-22T05:24:19.380Z,14.22
2019-04-22T05:25:11.735Z,14.07
2019-04-22T05:26:10.753Z,14.15
2019-04-22T05:27:19.979Z,14.21
2019-04-22T05:28:15.087Z,14.22
2019-04-22T05:29:15.053Z,14.21
2019-04-22T05:31:15.773Z,14.28
2019-04-22T05:32:14.713Z,14.24
2019-04-22T05:33:08.763Z,14.35
2019-04-22T05:34:08.209Z,14.33
2019-04-22T05:36:12.721Z,14.42
2019-04-22T05:37:11.223Z,14.37
2019-04-22T05:38:09.900Z,14.50
2019-04-22T05:39:13.925Z,14.42
2019-04-22T05:40:16.359Z,14.54
2019-04-22T05:41:10.202Z,14.68
2019-04-22T05:42:11.079Z,14.64
2019-04-22T05:43:08.184Z,14.68
2019-04-22T05:44:08.378Z,14.84
2019-04-22T05:45:12.003Z,14.95
2019-04-22T05:46:09.508Z,15.03
2019-04-22T05:47:08.576Z,15.16
2019-04-22T05:48:27.379Z,15.25
2019-04-22T05:49:13.233Z,15.39
2019-04-22T05:50:13.315Z,15.43
2019-04-22T05:51:09.980Z,15.64
2019-04-22T05:52:11.133Z,15.92
2019-04-22T05:53:19.513Z,16.38
2019-04-22T05:54:13.315Z,16.49
2019-04-22T05:55:09.704Z,16.67
2019-04-22T05:56:15.411Z,16.75
2019-04-22T05:57:10.313Z,16.85
2019-04-22T05:58:10.795Z,17.14
2019-04-22T05:59:15.898Z,17.51
2019-04-22T06:02:13.683Z,17.21
2019-04-22T06:03:20.848Z,16.96
2019-04-22T06:05:11.178Z,16.89
2019-04-22T06:06:09.378Z,16.86
2019-04-22T06:07:09.686Z,17.06
2019-04-22T06:08:03.920Z,17.16
2019-04-22T06:09:10.487Z,17.26
2019-04-22T06:10:11.697Z,17.63
2019-04-22T06:11:14.864Z,18.07
2019-04-22T06:12:09.444Z,18.21
2019-04-22T06:13:01.027Z,18.14
2019-04-22T06:14:02.304Z,18.18
2019-04-22T06:15:05.067Z,18.57
2019-04-22T06:16:07.405Z,19.11
2019-04-22T06:17:10.808Z,19.56
2019-04-22T06:19:08.641Z,20.02
2019-04-22T06:20:13.731Z,20.14
2019-04-22T06:22:12.834Z,20.41
2019-04-22T06:24:23.656Z,20.39
2019-04-22T06:25:10.369Z,20.32
2019-04-22T06:26:24.018Z,20.50
2019-04-22T06:28:13.576Z,21.10
2019-04-22T06:29:09.354Z,21.24
2019-04-22T06:30:10.916Z,21.44
2019-04-22T06:31:11.038Z,21.64
2019-04-22T06:34:17.930Z,22.36
2019-04-22T06:35:20.865Z,22.35
2019-04-22T06:36:08.178Z,22.22
2019-04-22T06:37:12.840Z,22.03
2019-04-22T06:39:10.459Z,21.53
2019-04-22T06:40:10.961Z,21.21
2019-04-22T06:41:16.375Z,20.62
2019-04-22T06:42:08.915Z,20.13
2019-04-22T06:43:08.819Z,19.95
2019-04-22T06:44:14.392Z,19.86
2019-04-22T06:45:21.865Z,20.06
2019-04-22T06:46:10.043Z,20.17
2019-04-22T06:47:10.491Z,20.18
2019-04-22T06:48:13.148Z,20.32
2019-04-22T06:49:12.873Z,20.52
2019-04-22T06:50:12.502Z,20.99
2019-04-22T06:51:07.703Z,21.07
2019-04-22T06:52:14.166Z,21.27
2019-04-22T06:53:23.721Z,21.38
2019-04-22T06:54:07.733Z,21.32
2019-04-22T06:55:07.882Z,21.38
2019-04-22T06:56:12.544Z,21.22
2019-04-22T06:57:06.195Z,21.12
2019-04-22T06:58:04.973Z,20.94
2019-04-22T06:59:10.019Z,20.98
2019-04-22T07:00:11.850Z,20.98
2019-04-22T07:01:09.581Z,20.94
2019-04-22T07:02:14.372Z,20.91
2019-04-22T07:04:03.068Z,21.25
2019-04-22T07:05:07.807Z,21.28
2019-04-22T07:06:11.498Z,21.24
2019-04-22T07:07:12.688Z,21.27
2019-04-22T07:08:16.069Z,21.37
2019-04-22T07:10:16.711Z,21.69
2019-04-22T07:11:02.794Z,21.98
2019-04-22T07:12:11.538Z,22.28
2019-04-22T07:13:11.498Z,22.43
2019-04-22T07:14:13.331Z,22.37
2019-04-22T07:15:12.815Z,22.09
2019-04-22T07:16:03.971Z,21.92
2019-04-22T07:17:11.141Z,21.98
2019-04-22T07:18:18.508Z,21.98
2019-04-22T07:19:07.343Z,21.80
2019-04-22T07:20:04.249Z,21.44
2019-04-22T07:21:09.922Z,21.42
2019-04-22T07:22:11.166Z,21.32
2019-04-22T07:23:07.937Z,21.27
2019-04-22T07:24:27.474Z,21.34
2019-04-22T07:25:06.249Z,21.50
2019-04-22T07:26:04.305Z,21.90
2019-04-22T07:27:18.899Z,22.21
2019-04-22T07:28:08.364Z,22.09
2019-04-22T07:29:13.068Z,22.28
2019-04-22T07:30:15.453Z,22.07
2019-04-22T07:31:04.028Z,22.02
2019-04-22T07:32:07.867Z,21.99
2019-04-22T07:34:15.989Z,21.71
2019-04-22T07:35:08.736Z,21.72
2019-04-22T07:38:11.118Z,21.99
2019-04-22T07:39:05.639Z,22.00
2019-04-22T07:40:10.281Z,22.15
2019-04-22T07:41:05.402Z,22.09
2019-04-22T07:42:09.397Z,21.88
2019-04-22T07:43:15.520Z,21.61
2019-04-22T07:45:28.161Z,21.37
2019-04-22T07:46:00.037Z,21.42
2019-04-22T07:47:13.946Z,21.35
2019-04-22T07:48:21.964Z,21.34
2019-04-22T07:50:19.137Z,21.31
2019-04-22T07:51:13.497Z,21.25
2019-04-22T07:52:05.166Z,21.34
2019-04-22T07:53:08.370Z,21.35
2019-04-22T07:54:06.513Z,21.29
2019-04-22T07:55:01.055Z,21.21
2019-04-22T07:56:05.469Z,21.24
2019-04-22T07:57:14.805Z,21.22
2019-04-22T07:58:05.360Z,21.24
2019-04-22T07:59:11.983Z,21.06
2019-04-22T08:00:08.806Z,20.99
2019-04-22T08:01:12.089Z,21.14
2019-04-22T08:02:10.266Z,21.24
2019-04-22T08:03:11.870Z,21.27
2019-04-22T08:04:21.681Z,21.25
2019-04-22T08:06:13.571Z,21.38
2019-04-22T08:08:13.371Z,21.52
2019-04-22T08:09:11.351Z,21.58
2019-04-22T08:11:22.426Z,22.10
2019-04-22T08:12:02.968Z,22.28
2019-04-22T08:13:14.071Z,22.35
2019-04-22T08:14:07.688Z,22.47
2019-04-22T08:15:06.125Z,22.60
2019-04-22T08:16:02.682Z,22.77
2019-04-22T08:17:30.696Z,22.62
2019-04-22T08:18:22.378Z,22.67
2019-04-22T08:19:09.182Z,22.86
2019-04-22T08:20:09.136Z,23.02
2019-04-22T08:21:04.243Z,23.25
2019-04-22T08:22:02.839Z,23.15
2019-04-22T08:23:10.573Z,23.33
2019-04-22T08:24:34.192Z,23.63
2019-04-22T08:25:05.470Z,23.91
2019-04-22T08:26:00.942Z,23.88
2019-04-22T08:28:13.389Z,24.57
2019-04-22T08:29:06.816Z,25.20
2019-04-22T08:31:10.375Z,25.50
2019-04-22T08:32:05.013Z,25.76
2019-04-22T08:33:13.887Z,25.95
2019-04-22T08:34:12.065Z,26.32
2019-04-22T08:35:15.971Z,26.76
2019-04-22T08:37:35.438Z,27.17
2019-04-22T08:38:06.865Z,27.13
2019-04-22T08:39:07.891Z,26.94
2019-04-22T08:40:15.016Z,26.47
2019-04-22T08:41:06.599Z,25.55
2019-04-22T08:42:10.923Z,24.78
2019-04-22T08:43:15.582Z,24.52
2019-04-22T08:44:07.651Z,24.68
2019-04-22T08:46:17.362Z,24.80
2019-04-22T08:47:11.211Z,24.80
2019-04-22T08:48:03.023Z,24.46
2019-04-22T08:49:18.875Z,24.20
2019-04-22T08:50:11.548Z,23.90
2019-04-22T08:51:08.488Z,23.66
2019-04-22T08:52:10.796Z,23.51
2019-04-22T08:53:12.498Z,23.50
2019-04-22T08:54:10.142Z,23.48
2019-04-22T08:56:17.203Z,23.58
2019-04-22T08:57:11.041Z,23.70
2019-04-22T08:58:23.067Z,23.75
2019-04-22T08:59:08.237Z,23.94
2019-04-22T09:00:07.150Z,23.79
2019-04-22T09:02:16.320Z,23.83
2019-04-22T09:03:04.713Z,23.94
2019-04-22T09:05:18.938Z,24.20
2019-04-22T09:06:17.714Z,24.35
2019-04-22T09:08:15.662Z,25.02
2019-04-22T09:09:06.186Z,24.46
2019-04-22T09:10:14.857Z,24.35
2019-04-22T09:11:09.148Z,24.30
2019-04-22T09:12:08.217Z,24.47
2019-04-22T09:13:09.471Z,24.28
2019-04-22T09:14:11.641Z,24.24
2019-04-22T09:15:02.442Z,24.21
2019-04-22T09:16:16.619Z,24.18
2019-04-22T09:17:10.385Z,24.22
2019-04-22T09:18:09.913Z,24.32
2019-04-22T09:19:15.417Z,24.43
2019-04-22T09:20:06.459Z,24.37
2019-04-22T09:21:14.187Z,24.32
2019-04-22T09:22:06.345Z,24.32
2019-04-22T09:23:07.682Z,24.18
2019-04-22T09:24:23.205Z,24.30
2019-04-22T09:25:03.245Z,24.15
2019-04-22T09:26:08.885Z,24.18
2019-04-22T09:27:11.213Z,24.32
2019-04-22T09:28:00.782Z,24.50
2019-04-22T09:29:05.113Z,24.43
2019-04-22T09:30:16.903Z,24.43
2019-04-22T09:31:06.621Z,24.47
2019-04-22T09:32:20.250Z,24.67
2019-04-22T09:33:09.941Z,25.02
2019-04-22T09:33:53.636Z,25.24
2019-04-22T09:35:03.429Z,25.46
2019-04-22T09:36:16.471Z,25.65
2019-04-22T09:37:14.426Z,25.75
2019-04-22T09:38:19.023Z,26.09
2019-04-22T09:39:00.855Z,26.32
2019-04-22T09:40:13.991Z,26.39
2019-04-22T09:41:14.805Z,26.54
2019-04-22T09:42:05.138Z,26.58
2019-04-22T09:43:04.671Z,26.73
2019-04-22T09:44:02.398Z,26.45
2019-04-22T09:45:06.146Z,25.83
2019-04-22T09:46:06.528Z,25.51
2019-04-22T09:47:07.380Z,25.25
2019-04-22T09:48:10.530Z,25.03
2019-04-22T09:50:24.323Z,25.09
2019-04-22T09:51:07.031Z,25.09
2019-04-22T09:52:10.149Z,25.06
2019-04-22T09:53:08.067Z,25.05
2019-04-22T09:54:20.187Z,24.95
2019-04-22T09:55:12.976Z,24.91
2019-04-22T09:56:03.994Z,24.96
2019-04-22T09:57:01.548Z,24.93
2019-04-22T09:58:02.862Z,25.27
2019-04-22T09:59:05.103Z,25.46
2019-04-22T10:01:13.970Z,25.60
2019-04-22T10:02:19.858Z,25.58
2019-04-22T10:03:13.663Z,25.51
2019-04-22T10:05:07.611Z,25.50
2019-04-22T10:06:16.527Z,25.58
2019-04-22T10:06:59.718Z,25.23
2019-04-22T10:08:08.133Z,25.14
2019-04-22T10:09:25.914Z,25.06
2019-04-22T10:10:09.062Z,25.08
2019-04-22T10:11:04.731Z,25.15
2019-04-22T10:12:08.474Z,25.21
2019-04-22T10:13:10.527Z,25.25
2019-04-22T10:14:17.037Z,25.50
2019-04-22T10:15:00.255Z,25.54
2019-04-22T10:16:15.426Z,25.52
2019-04-22T10:16:59.996Z,25.69
2019-04-22T10:18:04.116Z,25.62
2019-04-22T10:19:04.244Z,25.65
2019-04-22T10:20:06.743Z,25.57
2019-04-22T10:21:08.401Z,25.51
2019-04-22T10:22:07.320Z,25.43
2019-04-22T10:23:05.451Z,25.52
2019-04-22T10:24:03.124Z,25.50
2019-04-22T10:25:10.809Z,25.54
2019-04-22T10:26:04.831Z,25.57
2019-04-22T10:27:02.139Z,25.52
2019-04-22T10:28:01.235Z,25.77
2019-04-22T10:29:09.096Z,26.06
2019-04-22T10:30:05.383Z,25.73
2019-04-22T10:31:03.318Z,25.70
2019-04-22T10:32:00.773Z,25.75
2019-04-22T10:33:00.254Z,25.80
2019-04-22T10:33:56.272Z,25.82
2019-04-22T10:34:47.282Z,25.70
2019-04-22T10:35:45.642Z,25.60
2019-04-22T10:36:39.762Z,25.67
2019-04-22T10:37:38.795Z,25.75
2019-04-22T10:38:38.386Z,25.90
2019-04-22T10:39:45.848Z,25.98
2019-04-22T10:40:40.758Z,26.35
2019-04-22T10:41:38.949Z,26.36
2019-04-22T10:42:38.877Z,26.43
2019-04-22T10:43:39.160Z,26.62
2019-04-22T10:44:39.256Z,26.76
2019-04-22T10:45:39.697Z,26.80
2019-04-22T10:46:44.347Z,26.60
2019-04-22T10:47:38.356Z,26.40
2019-04-22T10:48:38.279Z,26.44
2019-04-22T10:49:38.451Z,26.44
2019-04-22T10:50:39.361Z,26.45
2019-04-22T10:51:38.250Z,26.23
2019-04-22T10:52:39.375Z,26.05
2019-04-22T10:53:39.556Z,26.06
2019-04-22T10:54:38.208Z,26.05
2019-04-22T10:55:41.684Z,26.13
2019-04-22T10:56:39.216Z,26.01
2019-04-22T10:57:44.400Z,26.13
2019-04-22T10:58:38.509Z,26.36
2019-04-22T10:59:38.556Z,26.35
2019-04-22T11:00:38.143Z,26.23
2019-04-22T11:01:38.636Z,26.32
2019-04-22T11:02:39.371Z,26.30
2019-04-22T11:03:39.491Z,26.21
2019-04-22T11:04:38.641Z,26.06
2019-04-22T11:05:38.087Z,25.88
2019-04-22T11:06:42.579Z,25.80
2019-04-22T11:07:44.248Z,25.79
2019-04-22T11:08:51.454Z,25.70
2019-04-22T11:09:50.756Z,25.60
2019-04-22T11:10:59.086Z,25.61
2019-04-22T11:11:48.916Z,25.33
2019-04-22T11:12:40.993Z,25.23
2019-04-22T11:13:37.999Z,25.08
2019-04-22T11:14:41.386Z,25.09
2019-04-22T11:15:40.349Z,25.09
2019-04-22T11:16:39.383Z,25.27
2019-04-22T11:17:37.970Z,25.21
2019-04-22T11:18:37.947Z,25.39
2019-04-22T11:19:43.587Z,25.47
2019-04-22T11:20:37.923Z,25.35
2019-04-22T11:21:37.953Z,25.33
2019-04-22T11:22:38.883Z,25.46
2019-04-22T11:23:38.673Z,25.40
2019-04-22T11:24:38.916Z,25.47
2019-04-22T11:25:37.880Z,25.43
2019-04-22T11:26:38.853Z,25.43
2019-04-22T11:27:39.070Z,25.62
2019-04-22T11:28:38.119Z,25.57
2019-04-22T11:29:39.289Z,25.69
2019-04-22T11:30:42.904Z,25.76
2019-04-22T11:31:38.792Z,25.88
2019-04-22T11:32:38.239Z,25.92
2019-04-22T11:33:38.587Z,26.23
2019-04-22T11:34:37.782Z,26.23
2019-04-22T11:35:37.753Z,26.47
2019-04-22T11:36:38.940Z,26.60
2019-04-22T11:37:38.738Z,26.66
2019-04-22T11:38:48.758Z,26.63
2019-04-22T11:39:38.724Z,26.43
2019-04-22T11:40:41.735Z,26.65
2019-04-22T11:41:44.373Z,26.76
2019-04-22T11:42:38.500Z,26.84
2019-04-22T11:43:38.966Z,26.85
2019-04-22T11:44:38.870Z,27.13
2019-04-22T11:45:37.662Z,27.25
2019-04-22T11:46:39.081Z,27.27
2019-04-22T11:47:37.637Z,27.29
2019-04-22T11:48:38.121Z,26.95
2019-04-22T11:49:37.599Z,26.94
2019-04-22T11:50:37.727Z,26.95
2019-04-22T11:51:38.079Z,26.92
2019-04-22T11:52:42.743Z,27.14
2019-04-22T11:53:38.641Z,27.02
2019-04-22T11:54:38.859Z,26.87
2019-04-22T11:55:37.548Z,26.94
2019-04-22T11:56:38.818Z,27.03
2019-04-22T11:57:38.855Z,26.94
2019-04-22T11:58:38.924Z,26.92
2019-04-22T11:59:38.549Z,26.73
2019-04-22T12:00:38.859Z,26.52
2019-04-22T12:01:38.758Z,26.63
2019-04-22T12:02:38.812Z,26.43
2019-04-22T12:03:44.106Z,26.43
2019-04-22T12:04:38.141Z,26.81
2019-04-22T12:05:37.641Z,27.09
2019-04-22T12:06:37.858Z,27.36
2019-04-22T12:07:38.986Z,27.27
2019-04-22T12:08:37.497Z,27.28
2019-04-22T12:09:37.640Z,27.24
2019-04-22T12:10:45.047Z,27.13
2019-04-22T12:11:38.593Z,27.18
2019-04-22T12:12:37.349Z,27.10
2019-04-22T12:13:37.946Z,26.88
2019-04-22T12:14:42.506Z,27.09
2019-04-22T12:15:37.465Z,27.21
2019-04-22T12:16:37.307Z,27.32
2019-04-22T12:17:38.169Z,27.40
2019-04-22T12:18:37.417Z,27.63
2019-04-22T12:19:37.908Z,27.46
2019-04-22T12:20:37.298Z,27.43
2019-04-22T12:21:37.260Z,27.43
2019-04-22T12:22:38.825Z,27.10
2019-04-22T12:23:37.247Z,27.03
2019-04-22T12:24:38.405Z,26.62
2019-04-22T12:25:51.618Z,26.57
2019-04-22T12:26:38.200Z,26.67
2019-04-22T12:27:37.184Z,26.76
2019-04-22T12:28:37.185Z,26.57
2019-04-22T12:29:38.597Z,26.32
2019-04-22T12:30:37.469Z,26.23
2019-04-22T12:31:37.666Z,26.09
2019-04-22T12:32:37.131Z,26.12
2019-04-22T12:33:37.221Z,25.87
2019-04-22T12:34:37.679Z,25.69
2019-04-22T12:35:37.096Z,25.60
2019-04-22T12:36:42.699Z,25.64
2019-04-22T12:37:47.061Z,25.52
2019-04-22T12:38:39.507Z,25.51
2019-04-22T12:39:37.058Z,25.43
2019-04-22T12:40:42.442Z,25.33
2019-04-22T12:41:38.355Z,25.24
2019-04-22T12:42:37.560Z,25.32
2019-04-22T12:43:37.316Z,25.39
2019-04-22T12:44:39.178Z,25.35
2019-04-22T12:45:38.454Z,25.13
2019-04-22T12:46:38.365Z,25.25
2019-04-22T12:47:42.262Z,25.32
2019-04-22T12:48:37.157Z,25.35
2019-04-22T12:49:40.465Z,25.45
2019-04-22T12:50:41.772Z,25.45
2019-04-22T12:51:38.867Z,25.38
2019-04-22T12:52:45.757Z,25.50
2019-04-22T12:53:38.095Z,25.33
2019-04-22T12:54:37.312Z,25.38
2019-04-22T12:55:37.568Z,25.23
2019-04-22T12:56:37.596Z,25.24
2019-04-22T12:57:36.907Z,25.30
2019-04-22T12:58:43.123Z,25.33
2019-04-22T12:59:37.378Z,25.23
2019-04-22T13:00:38.340Z,25.30
2019-04-22T13:01:37.191Z,25.38
2019-04-22T13:02:36.803Z,25.30
2019-04-22T13:03:38.195Z,25.28
2019-04-22T13:04:38.395Z,25.32
2019-04-22T13:05:37.577Z,25.35
2019-04-22T13:06:37.556Z,25.36
2019-04-22T13:07:38.034Z,25.36
2019-04-22T13:08:37.931Z,25.28
2019-04-22T13:09:43.202Z,25.25
2019-04-22T13:10:45.760Z,25.20
2019-04-22T13:11:38.911Z,25.23
2019-04-22T13:12:37.177Z,25.23
2019-04-22T13:13:36.873Z,25.20
2019-04-22T13:14:36.969Z,25.15
2019-04-22T13:15:37.040Z,25.14
2019-04-22T13:16:36.640Z,25.00
2019-04-22T13:17:37.959Z,25.03
2019-04-22T13:18:43.689Z,24.99
2019-04-22T13:19:38.082Z,25.00
2019-04-22T13:20:42.178Z,25.09
2019-04-22T13:21:36.647Z,25.08
2019-04-22T13:22:36.909Z,25.09
2019-04-22T13:23:36.951Z,25.09
2019-04-22T13:24:36.566Z,25.15
2019-04-22T13:25:36.717Z,25.14
2019-04-22T13:26:38.061Z,25.17
2019-04-22T13:27:37.125Z,25.20
2019-04-22T13:28:36.858Z,25.24
2019-04-22T13:29:37.194Z,25.13
2019-04-22T13:30:36.910Z,25.23
2019-04-22T13:31:42.500Z,25.20
2019-04-22T13:32:36.791Z,25.25
2019-04-22T13:33:36.980Z,25.13
2019-04-22T13:34:43.895Z,25.10
2019-04-22T13:35:37.433Z,25.10
2019-04-22T13:36:36.709Z,25.13
2019-04-22T13:37:36.991Z,25.09
2019-04-22T13:38:38.382Z,25.17
2019-04-22T13:39:36.727Z,25.32
2019-04-22T13:40:37.076Z,25.18
2019-04-22T13:41:44.004Z,25.32
2019-04-22T13:42:42.804Z,25.39
2019-04-22T13:43:36.651Z,25.39
2019-04-22T13:44:37.729Z,25.35
2019-04-22T13:45:36.323Z,25.43
2019-04-22T13:46:38.383Z,25.50
2019-04-22T13:47:54.671Z,25.55
2019-04-22T13:48:59.151Z,25.75
2019-04-22T13:50:06.069Z,25.73
2019-04-22T13:51:08.096Z,25.76
2019-04-22T13:52:15.421Z,25.82
2019-04-22T13:54:36.339Z,25.85
2019-04-22T13:54:59.662Z,25.87
2019-04-22T13:56:19.081Z,25.90
2019-04-22T13:56:51.881Z,25.83
2019-04-22T13:57:53.680Z,25.90
2019-04-22T13:58:52.864Z,25.94
2019-04-22T13:59:42.845Z,25.97
2019-04-22T14:00:38.470Z,25.99
2019-04-22T14:01:36.683Z,25.95
2019-04-22T14:02:36.923Z,25.97
2019-04-22T14:03:37.493Z,25.87
2019-04-22T14:04:41.156Z,25.72
2019-04-22T14:05:37.106Z,25.79
2019-04-22T14:06:36.596Z,25.82
2019-04-22T14:07:37.037Z,25.79
2019-04-22T14:08:37.469Z,25.82
2019-04-22T14:09:36.099Z,25.76
2019-04-22T14:10:36.345Z,25.75
2019-04-22T14:11:48.833Z,25.72
2019-04-22T14:12:37.169Z,25.62
2019-04-22T14:13:37.620Z,25.67
2019-04-22T14:14:38.661Z,25.72
2019-04-22T14:15:43.566Z,25.75
2019-04-22T14:16:37.139Z,25.75
2019-04-22T14:17:36.818Z,25.77
2019-04-22T14:18:37.030Z,25.73
2019-04-22T14:19:36.301Z,25.79
2019-04-22T14:20:36.812Z,25.85
2019-04-22T14:21:36.831Z,25.95
2019-04-22T14:22:36.602Z,25.97